sensor_id;sensor_type;location;lat;lon;timestamp;temperature;humidity
26107;DHT22;13866;50.748;12.630;2023-01-10T00:00:30;3.90;99.90
26107;DHT22;13866;50.748;12.630;2023-01-10T00:03:07;3.90;99.90
26107;DHT22;13866;50.748;12.630;2023-01-10T00:05:34;3.90;99.90
26107;DHT22;13866;50.748;12.630;2023-01-10T00:08:00;3.90;99.90
26107;DHT22;13866;50.748;12.630;2023-01-10T00:10:27;4.00;99.90
26107;DHT22;13866;50.748;12.630;2023-01-10T00:12:53;3.90;99.90
26107;DHT22;13866;50.748;12.630;2023-01-10T00:15:37;3.90;99.90
26107;DHT22;13866;50.748;12.630;2023-01-10T00:18:03;4.00;99.90
26107;DHT22;13866;50.748;12.630;2023-01-10T00:20:28;4.00;99.90
26107;DHT22;13866;50.748;12.630;2023-01-10T00:22:54;4.00;99.90
26107;DHT22;13866;50.748;12.630;2023-01-10T00:25:20;4.00;99.90
26107;DHT22;13866;50.748;12.630;2023-01-10T00:27:46;4.00;99.90
26107;DHT22;13866;50.748;12.630;2023-01-10T00:30:22;4.00;99.90
26107;DHT22;13866;50.748;12.630;2023-01-10T00:32:47;4.00;99.90
26107;DHT22;13866;50.748;12.630;2023-01-10T00:35:13;4.00;99.90
26107;DHT22;13866;50.748;12.630;2023-01-10T00:37:39;4.00;99.90
26107;DHT22;13866;50.748;12.630;2023-01-10T00:40:06;4.00;99.90
26107;DHT22;13866;50.748;12.630;2023-01-10T00:42:33;4.00;99.90
26107;DHT22;13866;50.748;12.630;2023-01-10T00:45:17;4.00;99.90
26107;DHT22;13866;50.748;12.630;2023-01-10T00:47:44;4.00;99.90
26107;DHT22;13866;50.748;12.630;2023-01-10T00:50:10;4.00;99.90
26107;DHT22;13866;50.748;12.630;2023-01-10T00:52:36;4.00;99.90
26107;DHT22;13866;50.748;12.630;2023-01-10T00:55:01;4.00;99.90
26107;DHT22;13866;50.748;12.630;2023-01-10T00:57:26;4.00;99.90
26107;DHT22;13866;50.748;12.630;2023-01-10T00:59:52;4.00;99.90
26107;DHT22;13866;50.748;12.630;2023-01-10T01:02:17;4.00;99.90
26107;DHT22;13866;50.748;12.630;2023-01-10T01:04:43;4.00;99.90
26107;DHT22;13866;50.748;12.630;2023-01-10T01:07:08;4.00;99.90
26107;DHT22;13866;50.748;12.630;2023-01-10T01:09:34;4.00;99.90
26107;DHT22;13866;50.748;12.630;2023-01-10T01:12:19;4.00;99.90
26107;DHT22;13866;50.748;12.630;2023-01-10T01:14:45;4.00;99.90
26107;DHT22;13866;50.748;12.630;2023-01-10T01:17:10;4.00;99.90
26107;DHT22;13866;50.748;12.630;2023-01-10T01:19:36;4.00;99.90
26107;DHT22;13866;50.748;12.630;2023-01-10T01:22:01;4.00;99.90
26107;DHT22;13866;50.748;12.630;2023-01-10T01:24:27;4.00;99.90
26107;DHT22;13866;50.748;12.630;2023-01-10T01:26:52;4.00;99.90
26107;DHT22;13866;50.748;12.630;2023-01-10T01:29:18;4.00;99.90
26107;DHT22;13866;50.748;12.630;2023-01-10T01:31:43;4.00;99.90
26107;DHT22;13866;50.748;12.630;2023-01-10T01:34:09;4.00;99.90
26107;DHT22;13866;50.748;12.630;2023-01-10T01:36:34;4.00;99.90
26107;DHT22;13866;50.748;12.630;2023-01-10T01:38:59;4.10;99.90
26107;DHT22;13866;50.748;12.630;2023-01-10T01:41:25;4.10;99.90
26107;DHT22;13866;50.748;12.630;2023-01-10T01:44:17;4.10;99.90
26107;DHT22;13866;50.748;12.630;2023-01-10T01:49:27;4.10;99.90
26107;DHT22;13866;50.748;12.630;2023-01-10T01:51:58;4.10;99.90
26107;DHT22;13866;50.748;12.630;2023-01-10T01:54:26;4.10;99.90
26107;DHT22;13866;50.748;12.630;2023-01-10T01:57:05;4.10;99.90
26107;DHT22;13866;50.748;12.630;2023-01-10T01:59:38;4.10;99.90
26107;DHT22;13866;50.748;12.630;2023-01-10T02:02:10;4.10;99.90
26107;DHT22;13866;50.748;12.630;2023-01-10T03:42:38;4.20;99.90
26107;DHT22;13866;50.748;12.630;2023-01-10T03:46:16;4.20;99.90
26107;DHT22;13866;50.748;12.630;2023-01-10T03:48:21;4.20;99.90
26107;DHT22;13866;50.748;12.630;2023-01-10T03:50:48;4.20;99.90
26107;DHT22;13866;50.748;12.630;2023-01-10T03:53:15;4.20;99.90
26107;DHT22;13866;50.748;12.630;2023-01-10T03:55:42;4.20;99.90
26107;DHT22;13866;50.748;12.630;2023-01-10T03:58:08;4.20;99.90
26107;DHT22;13866;50.748;12.630;2023-01-10T04:00:33;4.20;99.90
26107;DHT22;13866;50.748;12.630;2023-01-10T04:02:59;4.20;99.90
26107;DHT22;13866;50.748;12.630;2023-01-10T04:05:25;4.20;99.90
26107;DHT22;13866;50.748;12.630;2023-01-10T04:07:50;4.20;99.90
26107;DHT22;13866;50.748;12.630;2023-01-10T04:10:16;4.20;99.90
26107;DHT22;13866;50.748;12.630;2023-01-10T04:12:41;4.20;99.90
26107;DHT22;13866;50.748;12.630;2023-01-10T04:15:07;4.20;99.90
26107;DHT22;13866;50.748;12.630;2023-01-10T04:17:33;4.20;99.90
26107;DHT22;13866;50.748;12.630;2023-01-10T04:19:58;4.20;99.90
26107;DHT22;13866;50.748;12.630;2023-01-10T04:22:24;4.20;99.90
26107;DHT22;13866;50.748;12.630;2023-01-10T04:24:49;4.20;99.90
26107;DHT22;13866;50.748;12.630;2023-01-10T04:27:18;4.20;99.90
26107;DHT22;13866;50.748;12.630;2023-01-10T04:29:45;4.20;99.90
26107;DHT22;13866;50.748;12.630;2023-01-10T04:32:10;4.20;99.90
26107;DHT22;13866;50.748;12.630;2023-01-10T04:34:36;4.20;99.90
26107;DHT22;13866;50.748;12.630;2023-01-10T04:37:01;4.20;99.90
26107;DHT22;13866;50.748;12.630;2023-01-10T04:39:27;4.20;99.90
26107;DHT22;13866;50.748;12.630;2023-01-10T04:41:52;4.20;99.90
26107;DHT22;13866;50.748;12.630;2023-01-10T04:44:18;4.20;99.90
26107;DHT22;13866;50.748;12.630;2023-01-10T04:46:43;4.20;99.90
26107;DHT22;13866;50.748;12.630;2023-01-10T04:49:09;4.20;99.90
26107;DHT22;13866;50.748;12.630;2023-01-10T04:51:34;4.20;99.90
26107;DHT22;13866;50.748;12.630;2023-01-10T04:54:00;4.30;99.90
26107;DHT22;13866;50.748;12.630;2023-01-10T04:56:26;4.30;99.90
26107;DHT22;13866;50.748;12.630;2023-01-10T04:58:51;4.30;99.90
26107;DHT22;13866;50.748;12.630;2023-01-10T05:01:20;4.30;99.90
26107;DHT22;13866;50.748;12.630;2023-01-10T05:03:53;4.20;99.90
26107;DHT22;13866;50.748;12.630;2023-01-10T05:06:20;4.30;99.90
26107;DHT22;13866;50.748;12.630;2023-01-10T05:08:46;4.30;99.90
26107;DHT22;13866;50.748;12.630;2023-01-10T05:11:12;4.30;99.90
26107;DHT22;13866;50.748;12.630;2023-01-10T05:13:38;4.20;99.90
26107;DHT22;13866;50.748;12.630;2023-01-10T05:16:04;4.20;99.90
26107;DHT22;13866;50.748;12.630;2023-01-10T05:18:30;4.20;99.90
26107;DHT22;13866;50.748;12.630;2023-01-10T05:21:00;4.20;99.90
26107;DHT22;13866;50.748;12.630;2023-01-10T05:23:25;4.30;99.90
26107;DHT22;13866;50.748;12.630;2023-01-10T05:25:51;4.30;99.90
26107;DHT22;13866;50.748;12.630;2023-01-10T05:28:16;4.20;99.90
26107;DHT22;13866;50.748;12.630;2023-01-10T05:30:42;4.30;99.90
26107;DHT22;13866;50.748;12.630;2023-01-10T05:33:07;4.20;99.90
26107;DHT22;13866;50.748;12.630;2023-01-10T05:35:33;4.20;99.90
26107;DHT22;13866;50.748;12.630;2023-01-10T05:37:59;4.20;99.90
26107;DHT22;13866;50.748;12.630;2023-01-10T05:40:24;4.20;99.90
26107;DHT22;13866;50.748;12.630;2023-01-10T05:42:49;4.20;99.90
26107;DHT22;13866;50.748;12.630;2023-01-10T05:45:15;4.10;99.90
26107;DHT22;13866;50.748;12.630;2023-01-10T05:47:40;4.00;99.90
26107;DHT22;13866;50.748;12.630;2023-01-10T05:50:06;4.00;99.90
26107;DHT22;13866;50.748;12.630;2023-01-10T05:52:32;4.00;99.90
26107;DHT22;13866;50.748;12.630;2023-01-10T05:54:57;4.00;99.90
26107;DHT22;13866;50.748;12.630;2023-01-10T05:57:23;4.00;99.90
26107;DHT22;13866;50.748;12.630;2023-01-10T05:59:49;4.00;99.90
26107;DHT22;13866;50.748;12.630;2023-01-10T06:02:15;4.00;99.90
26107;DHT22;13866;50.748;12.630;2023-01-10T06:04:40;4.00;99.90
26107;DHT22;13866;50.748;12.630;2023-01-10T06:07:06;4.10;99.90
26107;DHT22;13866;50.748;12.630;2023-01-10T06:09:31;4.00;99.90
26107;DHT22;13866;50.748;12.630;2023-01-10T06:11:57;4.00;99.90
26107;DHT22;13866;50.748;12.630;2023-01-10T06:14:22;4.10;99.90
26107;DHT22;13866;50.748;12.630;2023-01-10T06:16:48;4.10;99.90
26107;DHT22;13866;50.748;12.630;2023-01-10T06:19:13;4.10;99.90
26107;DHT22;13866;50.748;12.630;2023-01-10T06:21:39;4.00;99.90
26107;DHT22;13866;50.748;12.630;2023-01-10T06:24:05;4.00;99.90
26107;DHT22;13866;50.748;12.630;2023-01-10T06:26:30;4.00;99.90
26107;DHT22;13866;50.748;12.630;2023-01-10T06:28:56;4.00;99.90
26107;DHT22;13866;50.748;12.630;2023-01-10T06:31:24;4.00;99.90
26107;DHT22;13866;50.748;12.630;2023-01-10T06:33:50;4.10;99.90
26107;DHT22;13866;50.748;12.630;2023-01-10T06:36:15;4.10;99.90
26107;DHT22;13866;50.748;12.630;2023-01-10T06:38:41;4.00;99.90
26107;DHT22;13866;50.748;12.630;2023-01-10T06:41:06;4.10;99.90
26107;DHT22;13866;50.748;12.630;2023-01-10T06:43:42;4.00;99.90
26107;DHT22;13866;50.748;12.630;2023-01-10T06:46:10;4.10;99.90
26107;DHT22;13866;50.748;12.630;2023-01-10T06:48:36;4.00;99.90
26107;DHT22;13866;50.748;12.630;2023-01-10T06:51:02;4.00;99.90
26107;DHT22;13866;50.748;12.630;2023-01-10T06:53:28;4.10;99.90
26107;DHT22;13866;50.748;12.630;2023-01-10T06:55:54;4.00;99.90
26107;DHT22;13866;50.748;12.630;2023-01-10T06:58:21;4.10;99.90
26107;DHT22;13866;50.748;12.630;2023-01-10T07:00:47;4.10;99.90
26107;DHT22;13866;50.748;12.630;2023-01-10T07:03:12;4.10;99.90
26107;DHT22;13866;50.748;12.630;2023-01-10T07:05:38;4.10;99.90
26107;DHT22;13866;50.748;12.630;2023-01-10T07:08:04;4.10;99.90
26107;DHT22;13866;50.748;12.630;2023-01-10T07:10:29;4.10;99.90
26107;DHT22;13866;50.748;12.630;2023-01-10T07:12:55;4.10;99.90
26107;DHT22;13866;50.748;12.630;2023-01-10T07:15:20;4.10;99.90
26107;DHT22;13866;50.748;12.630;2023-01-10T07:17:46;4.10;99.90
26107;DHT22;13866;50.748;12.630;2023-01-10T07:20:11;4.10;99.90
26107;DHT22;13866;50.748;12.630;2023-01-10T07:22:37;4.10;99.90
26107;DHT22;13866;50.748;12.630;2023-01-10T07:25:03;4.10;99.90
26107;DHT22;13866;50.748;12.630;2023-01-10T07:27:30;4.10;99.90
26107;DHT22;13866;50.748;12.630;2023-01-10T07:29:56;4.10;99.90
26107;DHT22;13866;50.748;12.630;2023-01-10T07:32:22;4.10;99.90
26107;DHT22;13866;50.748;12.630;2023-01-10T07:34:47;4.10;99.90
26107;DHT22;13866;50.748;12.630;2023-01-10T07:37:13;4.10;99.90
26107;DHT22;13866;50.748;12.630;2023-01-10T07:39:38;4.10;99.90
26107;DHT22;13866;50.748;12.630;2023-01-10T07:42:05;4.20;99.90
26107;DHT22;13866;50.748;12.630;2023-01-10T07:44:30;4.20;99.90
26107;DHT22;13866;50.748;12.630;2023-01-10T07:46:56;4.10;99.90
26107;DHT22;13866;50.748;12.630;2023-01-10T07:49:22;4.10;99.90
26107;DHT22;13866;50.748;12.630;2023-01-10T07:51:48;4.10;99.90
26107;DHT22;13866;50.748;12.630;2023-01-10T07:54:13;4.10;99.90
26107;DHT22;13866;50.748;12.630;2023-01-10T07:56:39;4.10;99.90
26107;DHT22;13866;50.748;12.630;2023-01-10T07:59:04;4.00;99.90
26107;DHT22;13866;50.748;12.630;2023-01-10T08:01:29;4.00;99.90
26107;DHT22;13866;50.748;12.630;2023-01-10T08:03:56;4.10;99.90
26107;DHT22;13866;50.748;12.630;2023-01-10T08:06:22;4.00;99.90
26107;DHT22;13866;50.748;12.630;2023-01-10T08:08:48;4.10;99.90
26107;DHT22;13866;50.748;12.630;2023-01-10T08:11:13;4.10;99.90
26107;DHT22;13866;50.748;12.630;2023-01-10T08:13:39;4.10;99.90
26107;DHT22;13866;50.748;12.630;2023-01-10T08:16:06;4.10;99.90
26107;DHT22;13866;50.748;12.630;2023-01-10T08:18:32;4.10;99.90
26107;DHT22;13866;50.748;12.630;2023-01-10T08:20:57;4.10;99.90
26107;DHT22;13866;50.748;12.630;2023-01-10T08:23:23;4.10;99.90
26107;DHT22;13866;50.748;12.630;2023-01-10T08:25:49;4.10;99.90
26107;DHT22;13866;50.748;12.630;2023-01-10T08:28:15;4.10;99.90
26107;DHT22;13866;50.748;12.630;2023-01-10T08:30:41;4.20;99.90
26107;DHT22;13866;50.748;12.630;2023-01-10T08:33:07;4.20;99.90
26107;DHT22;13866;50.748;12.630;2023-01-10T08:35:41;4.20;99.90
26107;DHT22;13866;50.748;12.630;2023-01-10T08:38:07;4.20;99.90
26107;DHT22;13866;50.748;12.630;2023-01-10T08:40:33;4.20;99.90
26107;DHT22;13866;50.748;12.630;2023-01-10T08:43:00;4.20;99.90
26107;DHT22;13866;50.748;12.630;2023-01-10T08:45:26;4.20;99.90
26107;DHT22;13866;50.748;12.630;2023-01-10T08:47:52;4.30;99.90
26107;DHT22;13866;50.748;12.630;2023-01-10T08:50:18;4.30;99.90
26107;DHT22;13866;50.748;12.630;2023-01-10T08:52:44;4.30;99.90
26107;DHT22;13866;50.748;12.630;2023-01-10T08:55:09;4.40;99.90
26107;DHT22;13866;50.748;12.630;2023-01-10T08:57:35;4.40;99.90
26107;DHT22;13866;50.748;12.630;2023-01-10T09:00:00;4.40;99.90
26107;DHT22;13866;50.748;12.630;2023-01-10T09:02:26;4.40;99.90
26107;DHT22;13866;50.748;12.630;2023-01-10T09:04:51;4.40;99.90
26107;DHT22;13866;50.748;12.630;2023-01-10T09:07:17;4.40;99.90
26107;DHT22;13866;50.748;12.630;2023-01-10T09:09:42;4.40;99.90
26107;DHT22;13866;50.748;12.630;2023-01-10T09:12:08;4.40;99.90
26107;DHT22;13866;50.748;12.630;2023-01-10T09:14:52;4.50;99.90
26107;DHT22;13866;50.748;12.630;2023-01-10T09:17:18;4.50;99.90
26107;DHT22;13866;50.748;12.630;2023-01-10T09:19:43;4.50;99.90
26107;DHT22;13866;50.748;12.630;2023-01-10T09:22:09;4.50;99.90
26107;DHT22;13866;50.748;12.630;2023-01-10T09:24:35;4.50;99.90
26107;DHT22;13866;50.748;12.630;2023-01-10T09:27:03;4.50;99.90
26107;DHT22;13866;50.748;12.630;2023-01-10T09:29:28;4.50;99.90
26107;DHT22;13866;50.748;12.630;2023-01-10T09:31:54;4.60;99.90
26107;DHT22;13866;50.748;12.630;2023-01-10T09:34:19;4.60;99.90
26107;DHT22;13866;50.748;12.630;2023-01-10T09:36:46;4.60;99.90
26107;DHT22;13866;50.748;12.630;2023-01-10T09:39:12;4.70;99.90
26107;DHT22;13866;50.748;12.630;2023-01-10T09:41:59;4.70;99.90
26107;DHT22;13866;50.748;12.630;2023-01-10T09:44:46;4.60;99.90
26107;DHT22;13866;50.748;12.630;2023-01-10T09:47:38;4.60;99.90
26107;DHT22;13866;50.748;12.630;2023-01-10T09:50:27;4.70;99.90
26107;DHT22;13866;50.748;12.630;2023-01-10T09:53:04;4.70;99.90
26107;DHT22;13866;50.748;12.630;2023-01-10T09:55:36;4.70;99.90
26107;DHT22;13866;50.748;12.630;2023-01-10T09:58:14;4.70;99.90
26107;DHT22;13866;50.748;12.630;2023-01-10T10:00:48;4.80;99.90
26107;DHT22;13866;50.748;12.630;2023-01-10T10:03:27;4.80;99.90
26107;DHT22;13866;50.748;12.630;2023-01-10T10:05:54;4.80;99.90
26107;DHT22;13866;50.748;12.630;2023-01-10T10:08:19;4.80;99.90
26107;DHT22;13866;50.748;12.630;2023-01-10T10:20:01;5.00;99.90
26107;DHT22;13866;50.748;12.630;2023-01-10T10:28:48;5.10;99.90
26107;DHT22;13866;50.748;12.630;2023-01-10T10:31:36;5.10;99.90
26107;DHT22;13866;50.748;12.630;2023-01-10T10:39:13;5.10;99.90
26107;DHT22;13866;50.748;12.630;2023-01-10T10:41:43;5.10;99.90
26107;DHT22;13866;50.748;12.630;2023-01-10T10:44:46;5.20;99.90
26107;DHT22;13866;50.748;12.630;2023-01-10T10:47:17;5.20;99.90
26107;DHT22;13866;50.748;12.630;2023-01-10T10:49:50;5.20;99.90
26107;DHT22;13866;50.748;12.630;2023-01-10T10:52:25;5.30;99.90
26107;DHT22;13866;50.748;12.630;2023-01-10T10:54:52;5.30;99.90
26107;DHT22;13866;50.748;12.630;2023-01-10T10:57:20;5.30;99.90
26107;DHT22;13866;50.748;12.630;2023-01-10T10:59:48;5.30;99.90
26107;DHT22;13866;50.748;12.630;2023-01-10T11:02:26;5.30;99.90
26107;DHT22;13866;50.748;12.630;2023-01-10T11:04:55;5.30;99.90
26107;DHT22;13866;50.748;12.630;2023-01-10T11:07:23;5.30;99.90
26107;DHT22;13866;50.748;12.630;2023-01-10T11:09:51;5.40;99.90
26107;DHT22;13866;50.748;12.630;2023-01-10T11:12:37;5.50;99.90
26107;DHT22;13866;50.748;12.630;2023-01-10T11:15:06;5.60;99.90
26107;DHT22;13866;50.748;12.630;2023-01-10T11:17:32;5.60;99.90
26107;DHT22;13866;50.748;12.630;2023-01-10T11:20:13;5.50;99.90
26107;DHT22;13866;50.748;12.630;2023-01-10T11:22:47;5.60;99.90
26107;DHT22;13866;50.748;12.630;2023-01-10T11:25:16;5.60;99.90
26107;DHT22;13866;50.748;12.630;2023-01-10T11:27:52;5.70;99.90
26107;DHT22;13866;50.748;12.630;2023-01-10T11:32:55;5.80;99.90
26107;DHT22;13866;50.748;12.630;2023-01-10T11:35:25;5.80;99.90
26107;DHT22;13866;50.748;12.630;2023-01-10T11:38:06;5.90;99.90
26107;DHT22;13866;50.748;12.630;2023-01-10T11:40:59;5.80;99.90
26107;DHT22;13866;50.748;12.630;2023-01-10T11:43:35;5.80;99.90
26107;DHT22;13866;50.748;12.630;2023-01-10T11:46:04;5.80;99.90
26107;DHT22;13866;50.748;12.630;2023-01-10T11:51:04;5.80;99.90
26107;DHT22;13866;50.748;12.630;2023-01-10T11:53:39;5.90;99.90
26107;DHT22;13866;50.748;12.630;2023-01-10T11:56:07;6.00;99.90
26107;DHT22;13866;50.748;12.630;2023-01-10T11:58:35;6.00;99.90
26107;DHT22;13866;50.748;12.630;2023-01-10T12:01:01;6.10;99.90
26107;DHT22;13866;50.748;12.630;2023-01-10T12:03:32;6.10;99.90
26107;DHT22;13866;50.748;12.630;2023-01-10T12:06:13;6.10;99.90
26107;DHT22;13866;50.748;12.630;2023-01-10T12:08:39;6.10;99.90
26107;DHT22;13866;50.748;12.630;2023-01-10T12:11:28;6.10;99.90
26107;DHT22;13866;50.748;12.630;2023-01-10T12:13:59;6.10;99.90
26107;DHT22;13866;50.748;12.630;2023-01-10T12:16:33;6.00;99.90
26107;DHT22;13866;50.748;12.630;2023-01-10T12:19:06;6.00;99.90
26107;DHT22;13866;50.748;12.630;2023-01-10T12:21:40;5.90;99.90
26107;DHT22;13866;50.748;12.630;2023-01-10T12:24:23;5.90;99.90
26107;DHT22;13866;50.748;12.630;2023-01-10T12:26:51;5.90;99.90
26107;DHT22;13866;50.748;12.630;2023-01-10T12:29:25;5.70;99.90
26107;DHT22;13866;50.748;12.630;2023-01-10T12:31:53;5.80;99.90
26107;DHT22;13866;50.748;12.630;2023-01-10T12:34:23;5.80;99.90
26107;DHT22;13866;50.748;12.630;2023-01-10T12:37:04;5.70;99.90
26107;DHT22;13866;50.748;12.630;2023-01-10T12:39:42;5.70;99.90
26107;DHT22;13866;50.748;12.630;2023-01-10T12:45:05;5.70;99.90
26107;DHT22;13866;50.748;12.630;2023-01-10T12:47:33;5.70;99.90
26107;DHT22;13866;50.748;12.630;2023-01-10T12:50:18;5.70;99.90
26107;DHT22;13866;50.748;12.630;2023-01-10T12:52:49;5.80;99.90
26107;DHT22;13866;50.748;12.630;2023-01-10T12:55:19;5.70;99.90
26107;DHT22;13866;50.748;12.630;2023-01-10T12:57:50;5.70;99.90
26107;DHT22;13866;50.748;12.630;2023-01-10T13:00:20;5.70;99.90
26107;DHT22;13866;50.748;12.630;2023-01-10T13:02:46;5.70;99.90
26107;DHT22;13866;50.748;12.630;2023-01-10T13:05:22;5.70;99.90
26107;DHT22;13866;50.748;12.630;2023-01-10T13:07:50;5.70;99.90
26107;DHT22;13866;50.748;12.630;2023-01-10T13:10:21;5.80;99.90
26107;DHT22;13866;50.748;12.630;2023-01-10T13:12:56;5.70;99.90
26107;DHT22;13866;50.748;12.630;2023-01-10T13:15:30;5.70;99.90
26107;DHT22;13866;50.748;12.630;2023-01-10T13:18:02;5.70;99.90
26107;DHT22;13866;50.748;12.630;2023-01-10T13:20:35;5.70;99.90
26107;DHT22;13866;50.748;12.630;2023-01-10T13:23:19;5.60;99.90
26107;DHT22;13866;50.748;12.630;2023-01-10T13:25:54;5.70;99.90
26107;DHT22;13866;50.748;12.630;2023-01-10T13:28:28;5.70;99.90
26107;DHT22;13866;50.748;12.630;2023-01-10T13:30:56;5.70;99.90
26107;DHT22;13866;50.748;12.630;2023-01-10T13:33:28;5.70;99.90
26107;DHT22;13866;50.748;12.630;2023-01-10T13:35:57;5.60;99.90
26107;DHT22;13866;50.748;12.630;2023-01-10T13:38:38;5.70;99.90
26107;DHT22;13866;50.748;12.630;2023-01-10T13:41:09;5.70;99.90
26107;DHT22;13866;50.748;12.630;2023-01-10T13:44:14;5.80;99.90
26107;DHT22;13866;50.748;12.630;2023-01-10T13:46:45;5.70;99.90
26107;DHT22;13866;50.748;12.630;2023-01-10T13:51:37;5.70;99.90
26107;DHT22;13866;50.748;12.630;2023-01-10T13:56:42;5.70;99.90
26107;DHT22;13866;50.748;12.630;2023-01-10T13:59:59;5.70;99.90
26107;DHT22;13866;50.748;12.630;2023-01-10T14:02:24;5.70;99.90
26107;DHT22;13866;50.748;12.630;2023-01-10T14:04:55;5.70;99.90
26107;DHT22;13866;50.748;12.630;2023-01-10T14:07:30;5.70;99.90
26107;DHT22;13866;50.748;12.630;2023-01-10T14:10:06;5.70;99.90
26107;DHT22;13866;50.748;12.630;2023-01-10T14:15:07;5.70;99.90
26107;DHT22;13866;50.748;12.630;2023-01-10T14:17:43;5.60;99.90
26107;DHT22;13866;50.748;12.630;2023-01-10T14:20:14;5.60;99.90
26107;DHT22;13866;50.748;12.630;2023-01-10T14:22:45;5.60;99.90
26107;DHT22;13866;50.748;12.630;2023-01-10T14:25:21;5.60;99.90
26107;DHT22;13866;50.748;12.630;2023-01-10T14:27:49;5.50;99.90
26107;DHT22;13866;50.748;12.630;2023-01-10T14:30:28;5.50;99.90
26107;DHT22;13866;50.748;12.630;2023-01-10T14:33:12;5.50;99.90
26107;DHT22;13866;50.748;12.630;2023-01-10T14:35:43;5.40;99.90
26107;DHT22;13866;50.748;12.630;2023-01-10T14:38:26;5.50;99.90
26107;DHT22;13866;50.748;12.630;2023-01-10T14:41:08;5.50;99.90
26107;DHT22;13866;50.748;12.630;2023-01-10T14:43:47;5.40;99.90
26107;DHT22;13866;50.748;12.630;2023-01-10T14:46:28;5.40;99.90
26107;DHT22;13866;50.748;12.630;2023-01-10T14:48:57;5.40;99.90
26107;DHT22;13866;50.748;12.630;2023-01-10T14:51:29;5.40;99.90
26107;DHT22;13866;50.748;12.630;2023-01-10T14:54:21;5.40;99.90
26107;DHT22;13866;50.748;12.630;2023-01-10T14:56:50;5.30;99.90
26107;DHT22;13866;50.748;12.630;2023-01-10T14:59:25;5.30;99.90
26107;DHT22;13866;50.748;12.630;2023-01-10T15:01:59;5.30;99.90
26107;DHT22;13866;50.748;12.630;2023-01-10T15:04:28;5.30;99.90
26107;DHT22;13866;50.748;12.630;2023-01-10T15:07:10;5.20;99.90
26107;DHT22;13866;50.748;12.630;2023-01-10T15:09:36;5.10;99.90
26107;DHT22;13866;50.748;12.630;2023-01-10T15:12:04;5.10;99.90
26107;DHT22;13866;50.748;12.630;2023-01-10T15:14:31;5.10;99.90
26107;DHT22;13866;50.748;12.630;2023-01-10T15:17:00;5.00;99.90
26107;DHT22;13866;50.748;12.630;2023-01-10T15:19:30;4.90;99.90
26107;DHT22;13866;50.748;12.630;2023-01-10T15:21:56;4.90;99.90
26107;DHT22;13866;50.748;12.630;2023-01-10T15:24:32;4.90;99.90
26107;DHT22;13866;50.748;12.630;2023-01-10T15:27:03;4.80;99.90
26107;DHT22;13866;50.748;12.630;2023-01-10T15:29:30;4.80;99.90
26107;DHT22;13866;50.748;12.630;2023-01-10T15:32:07;4.80;99.90
26107;DHT22;13866;50.748;12.630;2023-01-10T15:34:33;4.80;99.90
26107;DHT22;13866;50.748;12.630;2023-01-10T15:36:59;4.70;99.90
26107;DHT22;13866;50.748;12.630;2023-01-10T15:39:37;4.70;99.90
26107;DHT22;13866;50.748;12.630;2023-01-10T15:42:08;4.60;99.90
26107;DHT22;13866;50.748;12.630;2023-01-10T15:44:35;4.60;99.90
26107;DHT22;13866;50.748;12.630;2023-01-10T15:47:01;4.60;99.90
26107;DHT22;13866;50.748;12.630;2023-01-10T15:49:26;4.70;99.90
26107;DHT22;13866;50.748;12.630;2023-01-10T15:51:52;4.60;99.90
26107;DHT22;13866;50.748;12.630;2023-01-10T15:56:52;4.60;99.90
26107;DHT22;13866;50.748;12.630;2023-01-10T15:59:28;4.60;99.90
26107;DHT22;13866;50.748;12.630;2023-01-10T16:02:17;4.60;99.90
26107;DHT22;13866;50.748;12.630;2023-01-10T16:04:47;4.60;99.90
26107;DHT22;13866;50.748;12.630;2023-01-10T16:07:29;4.60;99.90
26107;DHT22;13866;50.748;12.630;2023-01-10T16:10:07;4.60;99.90
26107;DHT22;13866;50.748;12.630;2023-01-10T16:12:40;4.60;99.90
26107;DHT22;13866;50.748;12.630;2023-01-10T16:15:26;4.60;99.90
26107;DHT22;13866;50.748;12.630;2023-01-10T16:17:52;4.50;99.90
26107;DHT22;13866;50.748;12.630;2023-01-10T16:20:25;4.50;99.90
26107;DHT22;13866;50.748;12.630;2023-01-10T16:22:51;4.40;99.90
26107;DHT22;13866;50.748;12.630;2023-01-10T16:25:26;4.40;99.90
26107;DHT22;13866;50.748;12.630;2023-01-10T16:27:52;4.30;99.90
26107;DHT22;13866;50.748;12.630;2023-01-10T16:30:29;4.30;99.90
26107;DHT22;13866;50.748;12.630;2023-01-10T16:32:54;4.30;99.90
26107;DHT22;13866;50.748;12.630;2023-01-10T16:35:24;4.20;99.90
26107;DHT22;13866;50.748;12.630;2023-01-10T16:37:56;4.10;99.90
26107;DHT22;13866;50.748;12.630;2023-01-10T16:40:27;4.10;99.90
26107;DHT22;13866;50.748;12.630;2023-01-10T16:42:54;4.00;99.90
26107;DHT22;13866;50.748;12.630;2023-01-10T16:45:38;3.90;99.90
26107;DHT22;13866;50.748;12.630;2023-01-10T16:48:05;3.80;99.90
26107;DHT22;13866;50.748;12.630;2023-01-10T16:50:31;3.80;99.90
26107;DHT22;13866;50.748;12.630;2023-01-10T16:52:57;3.70;99.90
26107;DHT22;13866;50.748;12.630;2023-01-10T16:55:32;3.70;99.90
26107;DHT22;13866;50.748;12.630;2023-01-10T16:58:00;3.60;99.90
26107;DHT22;13866;50.748;12.630;2023-01-10T17:00:26;3.60;99.90
26107;DHT22;13866;50.748;12.630;2023-01-10T17:02:51;3.60;99.90
26107;DHT22;13866;50.748;12.630;2023-01-10T17:05:17;3.50;99.90
26107;DHT22;13866;50.748;12.630;2023-01-10T17:07:44;3.50;99.90
26107;DHT22;13866;50.748;12.630;2023-01-10T17:10:10;3.50;99.90
26107;DHT22;13866;50.748;12.630;2023-01-10T17:12:37;3.40;99.90
26107;DHT22;13866;50.748;12.630;2023-01-10T17:15:04;3.40;99.90
26107;DHT22;13866;50.748;12.630;2023-01-10T17:17:30;3.40;99.90
26107;DHT22;13866;50.748;12.630;2023-01-10T17:19:56;3.40;99.90
26107;DHT22;13866;50.748;12.630;2023-01-10T17:22:21;3.40;99.90
26107;DHT22;13866;50.748;12.630;2023-01-10T17:24:47;3.40;99.90
26107;DHT22;13866;50.748;12.630;2023-01-10T17:27:12;3.40;99.90
26107;DHT22;13866;50.748;12.630;2023-01-10T17:29:38;3.40;99.90
26107;DHT22;13866;50.748;12.630;2023-01-10T17:32:05;3.40;99.90
26107;DHT22;13866;50.748;12.630;2023-01-10T17:34:30;3.40;99.90
26107;DHT22;13866;50.748;12.630;2023-01-10T17:37:02;3.40;99.90
26107;DHT22;13866;50.748;12.630;2023-01-10T17:39:27;3.40;99.90
26107;DHT22;13866;50.748;12.630;2023-01-10T17:41:52;3.40;99.90
26107;DHT22;13866;50.748;12.630;2023-01-10T17:44:18;3.50;99.90
26107;DHT22;13866;50.748;12.630;2023-01-10T17:46:43;3.50;99.90
26107;DHT22;13866;50.748;12.630;2023-01-10T17:49:09;3.50;99.90
26107;DHT22;13866;50.748;12.630;2023-01-10T17:51:34;3.50;99.90
26107;DHT22;13866;50.748;12.630;2023-01-10T17:54:00;3.50;99.90
26107;DHT22;13866;50.748;12.630;2023-01-10T17:56:25;3.40;99.90
26107;DHT22;13866;50.748;12.630;2023-01-10T17:58:51;3.40;99.90
26107;DHT22;13866;50.748;12.630;2023-01-10T18:01:20;3.40;99.90
26107;DHT22;13866;50.748;12.630;2023-01-10T18:03:46;3.40;99.90